sensor_id;sensor_type;location;lat;lon;timestamp;P1;durP1;ratioP1;P2;durP2;ratioP2
50443;SDS011;36370;52.216;21.142;2022-11-14T00:01:25;70.88;;;30.13;;
50443;SDS011;36370;52.216;21.142;2022-11-14T00:05:45;70.70;;;31.98;;
50443;SDS011;36370;52.216;21.142;2022-11-14T00:10:06;71.82;;;32.90;;
50443;SDS011;36370;52.216;21.142;2022-11-14T00:14:27;63.85;;;30.77;;
50443;SDS011;36370;52.216;21.142;2022-11-14T00:18:47;71.28;;;33.15;;
50443;SDS011;36370;52.216;21.142;2022-11-14T00:23:08;68.40;;;31.65;;
50443;SDS011;36370;52.216;21.142;2022-11-14T00:27:29;70.18;;;34.40;;
50443;SDS011;36370;52.216;21.142;2022-11-14T00:31:50;80.20;;;35.13;;
50443;SDS011;36370;52.216;21.142;2022-11-14T00:36:10;68.57;;;32.63;;
50443;SDS011;36370;52.216;21.142;2022-11-14T00:40:30;71.65;;;32.53;;
50443;SDS011;36370;52.216;21.142;2022-11-14T00:44:51;63.55;;;31.15;;
50443;SDS011;36370;52.216;21.142;2022-11-14T00:49:11;72.38;;;32.03;;
50443;SDS011;36370;52.216;21.142;2022-11-14T00:53:32;66.03;;;31.52;;
50443;SDS011;36370;52.216;21.142;2022-11-14T00:57:52;72.13;;;31.35;;
50443;SDS011;36370;52.216;21.142;2022-11-14T01:02:13;70.82;;;33.72;;
50443;SDS011;36370;52.216;21.142;2022-11-14T01:06:33;60.95;;;30.25;;
50443;SDS011;36370;52.216;21.142;2022-11-14T01:10:53;78.28;;;33.47;;
50443;SDS011;36370;52.216;21.142;2022-11-14T01:15:13;63.75;;;31.80;;
50443;SDS011;36370;52.216;21.142;2022-11-14T01:19:34;70.50;;;33.30;;
50443;SDS011;36370;52.216;21.142;2022-11-14T01:23:54;76.22;;;33.88;;
50443;SDS011;36370;52.216;21.142;2022-11-14T01:28:15;68.65;;;32.15;;
50443;SDS011;36370;52.216;21.142;2022-11-14T01:32:37;69.03;;;32.67;;
50443;SDS011;36370;52.216;21.142;2022-11-14T01:36:57;75.35;;;36.05;;
50443;SDS011;36370;52.216;21.142;2022-11-14T01:41:17;88.53;;;39.90;;
50443;SDS011;36370;52.216;21.142;2022-11-14T01:50:14;87.30;;;40.60;;
50443;SDS011;36370;52.216;21.142;2022-11-14T01:54:36;82.25;;;39.65;;
50443;SDS011;36370;52.216;21.142;2022-11-14T01:59:04;83.00;;;37.85;;
50443;SDS011;36370;52.216;21.142;2022-11-14T02:03:28;81.28;;;37.47;;
50443;SDS011;36370;52.216;21.142;2022-11-14T02:07:48;80.78;;;36.38;;
50443;SDS011;36370;52.216;21.142;2022-11-14T02:12:10;72.45;;;33.63;;
50443;SDS011;36370;52.216;21.142;2022-11-14T02:16:32;72.10;;;32.40;;
50443;SDS011;36370;52.216;21.142;2022-11-14T02:20:53;64.70;;;29.55;;
50443;SDS011;36370;52.216;21.142;2022-11-14T02:25:13;72.75;;;31.15;;
50443;SDS011;36370;52.216;21.142;2022-11-14T02:29:37;54.25;;;27.67;;
50443;SDS011;36370;52.216;21.142;2022-11-14T02:33:57;57.78;;;27.40;;
50443;SDS011;36370;52.216;21.142;2022-11-14T02:38:18;58.97;;;28.02;;
50443;SDS011;36370;52.216;21.142;2022-11-14T02:42:38;61.15;;;28.02;;
50443;SDS011;36370;52.216;21.142;2022-11-14T02:46:59;62.33;;;28.02;;
50443;SDS011;36370;52.216;21.142;2022-11-14T02:51:19;58.53;;;28.33;;
50443;SDS011;36370;52.216;21.142;2022-11-14T02:55:39;66.38;;;30.23;;
50443;SDS011;36370;52.216;21.142;2022-11-14T03:00:00;66.35;;;31.48;;
50443;SDS011;36370;52.216;21.142;2022-11-14T03:04:20;62.30;;;30.15;;
50443;SDS011;36370;52.216;21.142;2022-11-14T03:08:40;62.30;;;30.75;;
50443;SDS011;36370;52.216;21.142;2022-11-14T03:13:01;62.10;;;32.75;;
50443;SDS011;36370;52.216;21.142;2022-11-14T03:17:21;49.83;;;28.38;;
50443;SDS011;36370;52.216;21.142;2022-11-14T03:21:43;63.05;;;31.85;;
50443;SDS011;36370;52.216;21.142;2022-11-14T03:26:05;61.05;;;29.35;;
50443;SDS011;36370;52.216;21.142;2022-11-14T03:30:27;61.85;;;32.05;;
50443;SDS011;36370;52.216;21.142;2022-11-14T03:34:47;60.80;;;31.95;;
50443;SDS011;36370;52.216;21.142;2022-11-14T03:39:07;58.25;;;30.63;;
50443;SDS011;36370;52.216;21.142;2022-11-14T03:43:32;62.35;;;31.20;;
50443;SDS011;36370;52.216;21.142;2022-11-14T03:47:53;56.83;;;31.15;;
50443;SDS011;36370;52.216;21.142;2022-11-14T03:52:14;55.53;;;28.98;;
50443;SDS011;36370;52.216;21.142;2022-11-14T03:56:35;63.03;;;31.42;;
50443;SDS011;36370;52.216;21.142;2022-11-14T04:00:55;62.72;;;32.95;;
50443;SDS011;36370;52.216;21.142;2022-11-14T04:05:16;59.35;;;32.55;;
50443;SDS011;36370;52.216;21.142;2022-11-14T04:09:36;61.88;;;32.55;;
50443;SDS011;36370;52.216;21.142;2022-11-14T04:13:57;55.78;;;30.60;;
50443;SDS011;36370;52.216;21.142;2022-11-14T04:18:17;62.80;;;33.53;;
50443;SDS011;36370;52.216;21.142;2022-11-14T04:22:38;68.18;;;33.85;;
50443;SDS011;36370;52.216;21.142;2022-11-14T04:26:59;59.58;;;31.92;;
50443;SDS011;36370;52.216;21.142;2022-11-14T04:31:19;63.72;;;34.75;;
50443;SDS011;36370;52.216;21.142;2022-11-14T04:35:39;66.82;;;34.30;;
50443;SDS011;36370;52.216;21.142;2022-11-14T04:40:00;63.25;;;34.28;;
50443;SDS011;36370;52.216;21.142;2022-11-14T04:44:21;76.93;;;37.67;;
50443;SDS011;36370;52.216;21.142;2022-11-14T04:48:41;77.40;;;37.47;;
50443;SDS011;36370;52.216;21.142;2022-11-14T04:53:01;75.53;;;37.60;;
50443;SDS011;36370;52.216;21.142;2022-11-14T04:57:22;72.80;;;38.88;;
50443;SDS011;36370;52.216;21.142;2022-11-14T05:01:42;64.55;;;36.72;;
50443;SDS011;36370;52.216;21.142;2022-11-14T05:06:03;68.18;;;37.33;;
50443;SDS011;36370;52.216;21.142;2022-11-14T05:10:23;60.78;;;34.53;;
50443;SDS011;36370;52.216;21.142;2022-11-14T05:14:44;81.03;;;40.10;;
50443;SDS011;36370;52.216;21.142;2022-11-14T05:19:04;73.20;;;35.72;;
50443;SDS011;36370;52.216;21.142;2022-11-14T05:23:24;105.60;;;40.83;;
50443;SDS011;36370;52.216;21.142;2022-11-14T05:27:45;87.95;;;41.05;;
50443;SDS011;36370;52.216;21.142;2022-11-14T05:32:05;99.78;;;45.60;;
50443;SDS011;36370;52.216;21.142;2022-11-14T05:36:25;86.78;;;41.00;;
50443;SDS011;36370;52.216;21.142;2022-11-14T05:40:46;104.25;;;47.65;;
50443;SDS011;36370;52.216;21.142;2022-11-14T05:45:06;102.72;;;48.28;;
50443;SDS011;36370;52.216;21.142;2022-11-14T05:49:27;93.45;;;45.33;;
50443;SDS011;36370;52.216;21.142;2022-11-14T05:53:47;90.63;;;43.88;;
50443;SDS011;36370;52.216;21.142;2022-11-14T05:58:08;103.28;;;45.72;;
50443;SDS011;36370;52.216;21.142;2022-11-14T06:02:28;110.82;;;46.95;;
50443;SDS011;36370;52.216;21.142;2022-11-14T06:06:49;90.47;;;43.88;;
50443;SDS011;36370;52.216;21.142;2022-11-14T06:11:13;83.93;;;40.22;;
50443;SDS011;36370;52.216;21.142;2022-11-14T06:15:35;88.00;;;42.25;;
50443;SDS011;36370;52.216;21.142;2022-11-14T06:19:56;80.65;;;37.03;;
50443;SDS011;36370;52.216;21.142;2022-11-14T06:24:16;71.72;;;34.83;;
50443;SDS011;36370;52.216;21.142;2022-11-14T06:28:36;70.72;;;32.03;;
50443;SDS011;36370;52.216;21.142;2022-11-14T06:32:57;61.97;;;31.50;;
50443;SDS011;36370;52.216;21.142;2022-11-14T06:37:20;64.18;;;32.03;;
50443;SDS011;36370;52.216;21.142;2022-11-14T06:41:40;48.35;;;25.30;;
50443;SDS011;36370;52.216;21.142;2022-11-14T06:46:01;47.33;;;23.58;;
50443;SDS011;36370;52.216;21.142;2022-11-14T06:50:22;45.78;;;21.08;;
50443;SDS011;36370;52.216;21.142;2022-11-14T06:54:42;49.13;;;22.55;;
50443;SDS011;36370;52.216;21.142;2022-11-14T06:59:02;50.00;;;23.00;;
50443;SDS011;36370;52.216;21.142;2022-11-14T07:03:22;43.72;;;21.98;;
50443;SDS011;36370;52.216;21.142;2022-11-14T07:07:43;45.50;;;24.25;;
50443;SDS011;36370;52.216;21.142;2022-11-14T07:12:04;45.22;;;23.50;;
50443;SDS011;36370;52.216;21.142;2022-11-14T07:16:26;37.80;;;20.10;;
50443;SDS011;36370;52.216;21.142;2022-11-14T07:20:55;41.67;;;20.95;;
50443;SDS011;36370;52.216;21.142;2022-11-14T07:25:20;37.05;;;18.73;;
50443;SDS011;36370;52.216;21.142;2022-11-14T07:29:41;43.28;;;19.67;;
50443;SDS011;36370;52.216;21.142;2022-11-14T07:34:02;36.15;;;17.80;;
50443;SDS011;36370;52.216;21.142;2022-11-14T07:38:22;33.83;;;16.73;;
50443;SDS011;36370;52.216;21.142;2022-11-14T07:42:43;34.47;;;16.90;;
50443;SDS011;36370;52.216;21.142;2022-11-14T07:47:04;31.10;;;15.80;;
50443;SDS011;36370;52.216;21.142;2022-11-14T07:51:24;35.55;;;17.45;;
50443;SDS011;36370;52.216;21.142;2022-11-14T07:55:44;33.13;;;15.55;;
50443;SDS011;36370;52.216;21.142;2022-11-14T08:00:05;34.00;;;18.75;;
50443;SDS011;36370;52.216;21.142;2022-11-14T08:04:26;35.20;;;19.67;;
50443;SDS011;36370;52.216;21.142;2022-11-14T08:08:46;31.20;;;17.98;;
50443;SDS011;36370;52.216;21.142;2022-11-14T08:13:06;37.70;;;20.35;;
50443;SDS011;36370;52.216;21.142;2022-11-14T08:17:47;42.38;;;21.17;;
50443;SDS011;36370;52.216;21.142;2022-11-14T08:22:07;33.22;;;18.63;;
50443;SDS011;36370;52.216;21.142;2022-11-14T08:26:28;33.70;;;18.02;;
50443;SDS011;36370;52.216;21.142;2022-11-14T08:30:57;35.28;;;18.15;;
50443;SDS011;36370;52.216;21.142;2022-11-14T08:35:19;39.42;;;20.65;;
50443;SDS011;36370;52.216;21.142;2022-11-14T08:39:39;34.15;;;18.05;;
50443;SDS011;36370;52.216;21.142;2022-11-14T08:44:00;25.98;;;15.73;;
50443;SDS011;36370;52.216;21.142;2022-11-14T08:48:20;30.58;;;15.57;;
50443;SDS011;36370;52.216;21.142;2022-11-14T08:52:41;25.10;;;15.07;;
50443;SDS011;36370;52.216;21.142;2022-11-14T08:57:01;23.75;;;14.10;;
50443;SDS011;36370;52.216;21.142;2022-11-14T09:01:21;23.77;;;12.90;;
50443;SDS011;36370;52.216;21.142;2022-11-14T09:05:41;23.70;;;13.13;;
50443;SDS011;36370;52.216;21.142;2022-11-14T09:10:02;22.10;;;13.82;;
50443;SDS011;36370;52.216;21.142;2022-11-14T09:14:23;32.15;;;16.05;;
50443;SDS011;36370;52.216;21.142;2022-11-14T09:18:44;23.88;;;14.27;;
50443;SDS011;36370;52.216;21.142;2022-11-14T09:23:04;31.88;;;16.00;;
50443;SDS011;36370;52.216;21.142;2022-11-14T09:27:25;26.63;;;16.20;;
50443;SDS011;36370;52.216;21.142;2022-11-14T09:31:46;33.97;;;19.55;;
50443;SDS011;36370;52.216;21.142;2022-11-14T09:36:08;31.48;;;19.10;;
50443;SDS011;36370;52.216;21.142;2022-11-14T09:40:30;26.10;;;18.17;;
50443;SDS011;36370;52.216;21.142;2022-11-14T09:45:03;31.75;;;18.75;;
50443;SDS011;36370;52.216;21.142;2022-11-14T09:49:34;16.95;;;9.50;;
50443;SDS011;36370;52.216;21.142;2022-11-14T09:54:17;41.70;;;15.95;;
50443;SDS011;36370;52.216;21.142;2022-11-14T09:58:41;13.52;;;7.65;;
50443;SDS011;36370;52.216;21.142;2022-11-14T10:03:05;17.00;;;8.55;;
50443;SDS011;36370;52.216;21.142;2022-11-14T10:07:37;15.40;;;9.15;;
50443;SDS011;36370;52.216;21.142;2022-11-14T10:12:13;27.38;;;11.27;;
50443;SDS011;36370;52.216;21.142;2022-11-14T10:21:38;18.77;;;8.30;;
50443;SDS011;36370;52.216;21.142;2022-11-14T10:26:14;20.17;;;8.63;;
50443;SDS011;36370;52.216;21.142;2022-11-14T10:30:46;13.63;;;7.43;;
50443;SDS011;36370;52.216;21.142;2022-11-14T10:35:35;14.23;;;8.98;;
50443;SDS011;36370;52.216;21.142;2022-11-14T10:44:38;19.40;;;11.48;;
50443;SDS011;36370;52.216;21.142;2022-11-14T10:49:20;21.67;;;12.05;;
50443;SDS011;36370;52.216;21.142;2022-11-14T10:58:43;41.13;;;20.05;;
50443;SDS011;36370;52.216;21.142;2022-11-14T11:03:08;36.28;;;17.80;;
50443;SDS011;36370;52.216;21.142;2022-11-14T11:07:29;41.65;;;19.55;;
50443;SDS011;36370;52.216;21.142;2022-11-14T11:12:13;41.13;;;20.40;;
50443;SDS011;36370;52.216;21.142;2022-11-14T11:16:36;45.95;;;23.23;;
50443;SDS011;36370;52.216;21.142;2022-11-14T11:21:03;43.72;;;25.80;;
50443;SDS011;36370;52.216;21.142;2022-11-14T11:25:27;42.05;;;24.55;;
50443;SDS011;36370;52.216;21.142;2022-11-14T11:30:08;47.05;;;26.83;;
50443;SDS011;36370;52.216;21.142;2022-11-14T11:34:38;43.87;;;24.33;;
50443;SDS011;36370;52.216;21.142;2022-11-14T11:38:58;35.35;;;18.75;;
50443;SDS011;36370;52.216;21.142;2022-11-14T11:43:35;30.27;;;16.30;;
50443;SDS011;36370;52.216;21.142;2022-11-14T11:58:11;27.17;;;16.00;;
50443;SDS011;36370;52.216;21.142;2022-11-14T12:02:26;29.25;;;16.92;;
50443;SDS011;36370;52.216;21.142;2022-11-14T12:11:35;31.35;;;17.27;;
50443;SDS011;36370;52.216;21.142;2022-11-14T12:16:10;33.60;;;20.00;;
50443;SDS011;36370;52.216;21.142;2022-11-14T12:21:01;33.63;;;21.20;;
50443;SDS011;36370;52.216;21.142;2022-11-14T12:30:12;33.17;;;19.38;;
50443;SDS011;36370;52.216;21.142;2022-11-14T12:34:37;37.40;;;23.30;;
50443;SDS011;36370;52.216;21.142;2022-11-14T12:39:01;50.25;;;31.42;;
50443;SDS011;36370;52.216;21.142;2022-11-14T12:52:51;51.58;;;27.95;;
50443;SDS011;36370;52.216;21.142;2022-11-14T12:57:16;52.70;;;26.13;;
50443;SDS011;36370;52.216;21.142;2022-11-14T13:02:51;53.20;;;27.45;;
50443;SDS011;36370;52.216;21.142;2022-11-14T13:11:53;74.18;;;32.55;;
50443;SDS011;36370;52.216;21.142;2022-11-14T13:16:32;80.57;;;36.00;;
50443;SDS011;36370;52.216;21.142;2022-11-14T13:21:24;84.73;;;35.53;;
50443;SDS011;36370;52.216;21.142;2022-11-14T13:35:41;66.47;;;32.78;;
50443;SDS011;36370;52.216;21.142;2022-11-14T13:54:13;67.68;;;31.45;;
50443;SDS011;36370;52.216;21.142;2022-11-14T14:03:22;78.78;;;33.75;;
50443;SDS011;36370;52.216;21.142;2022-11-14T14:22:37;75.45;;;32.95;;
50443;SDS011;36370;52.216;21.142;2022-11-14T14:27:11;91.38;;;36.28;;
50443;SDS011;36370;52.216;21.142;2022-11-14T14:31:37;74.93;;;33.53;;
50443;SDS011;36370;52.216;21.142;2022-11-14T14:36:00;83.88;;;40.08;;
50443;SDS011;36370;52.216;21.142;2022-11-14T14:40:22;96.60;;;43.10;;
50443;SDS011;36370;52.216;21.142;2022-11-14T14:44:53;94.40;;;45.65;;
50443;SDS011;36370;52.216;21.142;2022-11-14T14:49:20;77.63;;;40.28;;
50443;SDS011;36370;52.216;21.142;2022-11-14T14:53:49;80.72;;;41.22;;
50443;SDS011;36370;52.216;21.142;2022-11-14T14:58:21;70.63;;;34.70;;
50443;SDS011;36370;52.216;21.142;2022-11-14T15:02:45;68.28;;;35.60;;
50443;SDS011;36370;52.216;21.142;2022-11-14T15:07:14;49.53;;;28.30;;
50443;SDS011;36370;52.216;21.142;2022-11-14T15:11:41;48.42;;;25.08;;
50443;SDS011;36370;52.216;21.142;2022-11-14T15:16:03;51.97;;;26.30;;
50443;SDS011;36370;52.216;21.142;2022-11-14T15:20:26;46.33;;;25.08;;
50443;SDS011;36370;52.216;21.142;2022-11-14T15:29:30;52.25;;;28.45;;
50443;SDS011;36370;52.216;21.142;2022-11-14T15:34:02;53.15;;;28.10;;
50443;SDS011;36370;52.216;21.142;2022-11-14T15:38:25;58.63;;;28.90;;
50443;SDS011;36370;52.216;21.142;2022-11-14T15:48:20;58.67;;;29.80;;
50443;SDS011;36370;52.216;21.142;2022-11-14T15:52:47;58.47;;;32.65;;
50443;SDS011;36370;52.216;21.142;2022-11-14T15:57:17;61.65;;;33.25;;
50443;SDS011;36370;52.216;21.142;2022-11-14T16:01:38;54.97;;;29.65;;
50443;SDS011;36370;52.216;21.142;2022-11-14T16:05:59;54.35;;;28.90;;
50443;SDS011;36370;52.216;21.142;2022-11-14T16:10:23;51.25;;;29.48;;
50443;SDS011;36370;52.216;21.142;2022-11-14T16:14:45;47.75;;;28.50;;
50443;SDS011;36370;52.216;21.142;2022-11-14T16:19:06;52.42;;;31.40;;
50443;SDS011;36370;52.216;21.142;2022-11-14T16:23:26;51.20;;;28.42;;
50443;SDS011;36370;52.216;21.142;2022-11-14T16:27:47;52.78;;;30.08;;
50443;SDS011;36370;52.216;21.142;2022-11-14T16:32:09;48.95;;;27.70;;
50443;SDS011;36370;52.216;21.142;2022-11-14T16:36:29;56.33;;;31.42;;
50443;SDS011;36370;52.216;21.142;2022-11-14T16:40:51;50.22;;;29.50;;
50443;SDS011;36370;52.216;21.142;2022-11-14T16:45:11;54.55;;;30.10;;
50443;SDS011;36370;52.216;21.142;2022-11-14T16:49:32;56.15;;;31.00;;
50443;SDS011;36370;52.216;21.142;2022-11-14T16:53:54;54.83;;;31.27;;
50443;SDS011;36370;52.216;21.142;2022-11-14T16:58:15;50.78;;;30.30;;
50443;SDS011;36370;52.216;21.142;2022-11-14T17:02:36;38.17;;;21.17;;
50443;SDS011;36370;52.216;21.142;2022-11-14T17:06:58;34.35;;;21.60;;
50443;SDS011;36370;52.216;21.142;2022-11-14T17:11:19;33.92;;;19.00;;
50443;SDS011;36370;52.216;21.142;2022-11-14T17:15:40;35.50;;;21.27;;
50443;SDS011;36370;52.216;21.142;2022-11-14T17:20:01;33.25;;;18.80;;
50443;SDS011;36370;52.216;21.142;2022-11-14T17:24:21;32.67;;;18.85;;
50443;SDS011;36370;52.216;21.142;2022-11-14T17:28:47;29.25;;;17.52;;
50443;SDS011;36370;52.216;21.142;2022-11-14T17:33:08;31.85;;;19.00;;
50443;SDS011;36370;52.216;21.142;2022-11-14T17:37:29;28.88;;;18.23;;
50443;SDS011;36370;52.216;21.142;2022-11-14T17:41:48;32.10;;;19.67;;
50443;SDS011;36370;52.216;21.142;2022-11-14T17:46:09;32.15;;;19.08;;
50443;SDS011;36370;52.216;21.142;2022-11-14T17:50:37;36.65;;;21.75;;
50443;SDS011;36370;52.216;21.142;2022-11-14T17:54:58;36.17;;;23.75;;
50443;SDS011;36370;52.216;21.142;2022-11-14T17:59:18;39.08;;;23.30;;
50443;SDS011;36370;52.216;21.142;2022-11-14T18:03:39;50.55;;;30.92;;
50443;SDS011;36370;52.216;21.142;2022-11-14T18:07:59;49.17;;;31.55;;
50443;SDS011;36370;52.216;21.142;2022-11-14T18:12:20;46.28;;;27.77;;
50443;SDS011;36370;52.216;21.142;2022-11-14T18:16:40;38.42;;;25.20;;
50443;SDS011;36370;52.216;21.142;2022-11-14T18:21:22;38.17;;;22.48;;
50443;SDS011;36370;52.216;21.142;2022-11-14T18:25:43;36.97;;;21.50;;
50443;SDS011;36370;52.216;21.142;2022-11-14T18:30:04;37.42;;;22.50;;
50443;SDS011;36370;52.216;21.142;2022-11-14T18:34:45;38.42;;;21.77;;
50443;SDS011;36370;52.216;21.142;2022-11-14T18:39:06;34.28;;;20.27;;
50443;SDS011;36370;52.216;21.142;2022-11-14T18:43:27;38.47;;;21.77;;
50443;SDS011;36370;52.216;21.142;2022-11-14T18:47:51;46.33;;;26.65;;
50443;SDS011;36370;52.216;21.142;2022-11-14T18:52:11;43.78;;;24.08;;
50443;SDS011;36370;52.216;21.142;2022-11-14T18:56:36;40.05;;;24.88;;
50443;SDS011;36370;52.216;21.142;2022-11-14T19:00:58;42.72;;;24.92;;
50443;SDS011;36370;52.216;21.142;2022-11-14T19:05:34;39.35;;;24.42;;
50443;SDS011;36370;52.216;21.142;2022-11-14T19:09:55;48.35;;;25.48;;
50443;SDS011;36370;52.216;21.142;2022-11-14T19:14:16;49.08;;;26.85;;
50443;SDS011;36370;52.216;21.142;2022-11-14T19:18:36;43.53;;;24.80;;
50443;SDS011;36370;52.216;21.142;2022-11-14T19:22:57;50.35;;;26.70;;
50443;SDS011;36370;52.216;21.142;2022-11-14T19:27:17;43.38;;;27.55;;
50443;SDS011;36370;52.216;21.142;2022-11-14T19:31:38;47.05;;;26.35;;
50443;SDS011;36370;52.216;21.142;2022-11-14T19:36:09;45.03;;;27.88;;
50443;SDS011;36370;52.216;21.142;2022-11-14T19:40:32;44.58;;;26.35;;
50443;SDS011;36370;52.216;21.142;2022-11-14T19:44:55;49.55;;;26.63;;
50443;SDS011;36370;52.216;21.142;2022-11-14T19:49:15;40.85;;;26.10;;
50443;SDS011;36370;52.216;21.142;2022-11-14T19:53:36;42.60;;;25.50;;
50443;SDS011;36370;52.216;21.142;2022-11-14T19:57:58;41.63;;;25.60;;
50443;SDS011;36370;52.216;21.142;2022-11-14T20:02:18;45.28;;;25.63;;
50443;SDS011;36370;52.216;21.142;2022-11-14T20:06:38;42.95;;;26.45;;
50443;SDS011;36370;52.216;21.142;2022-11-14T20:11:01;47.92;;;28.63;;
50443;SDS011;36370;52.216;21.142;2022-11-14T20:15:23;46.92;;;27.55;;
50443;SDS011;36370;52.216;21.142;2022-11-14T20:19:44;44.95;;;26.88;;
50443;SDS011;36370;52.216;21.142;2022-11-14T20:24:04;44.83;;;26.42;;
50443;SDS011;36370;52.216;21.142;2022-11-14T20:28:25;52.13;;;28.75;;
50443;SDS011;36370;52.216;21.142;2022-11-14T20:32:46;47.13;;;26.90;;
50443;SDS011;36370;52.216;21.142;2022-11-14T20:37:05;47.80;;;28.33;;
50443;SDS011;36370;52.216;21.142;2022-11-14T20:41:31;47.30;;;28.13;;
50443;SDS011;36370;52.216;21.142;2022-11-14T20:45:55;43.63;;;26.40;;
50443;SDS011;36370;52.216;21.142;2022-11-14T20:50:20;45.00;;;27.60;;
50443;SDS011;36370;52.216;21.142;2022-11-14T20:54:40;51.70;;;27.27;;
50443;SDS011;36370;52.216;21.142;2022-11-14T20:59:01;45.65;;;28.38;;
50443;SDS011;36370;52.216;21.142;2022-11-14T21:03:21;46.83;;;27.98;;
50443;SDS011;36370;52.216;21.142;2022-11-14T21:07:42;51.38;;;28.73;;
50443;SDS011;36370;52.216;21.142;2022-11-14T21:12:02;46.55;;;27.77;;
50443;SDS011;36370;52.216;21.142;2022-11-14T21:16:24;45.63;;;27.02;;
50443;SDS011;36370;52.216;21.142;2022-11-14T21:20:48;48.67;;;29.55;;
50443;SDS011;36370;52.216;21.142;2022-11-14T21:25:17;47.28;;;27.92;;
50443;SDS011;36370;52.216;21.142;2022-11-14T21:29:37;48.50;;;28.90;;
50443;SDS011;36370;52.216;21.142;2022-11-14T21:33:59;44.67;;;27.05;;
50443;SDS011;36370;52.216;21.142;2022-11-14T21:38:20;47.00;;;26.65;;
50443;SDS011;36370;52.216;21.142;2022-11-14T21:42:41;41.83;;;27.60;;
50443;SDS011;36370;52.216;21.142;2022-11-14T21:47:01;51.58;;;28.23;;
50443;SDS011;36370;52.216;21.142;2022-11-14T21:51:23;46.42;;;28.58;;
50443;SDS011;36370;52.216;21.142;2022-11-14T21:55:45;47.42;;;30.20;;
50443;SDS011;36370;52.216;21.142;2022-11-14T22:00:06;49.58;;;30.25;;
50443;SDS011;36370;52.216;21.142;2022-11-14T22:04:27;50.28;;;29.17;;
50443;SDS011;36370;52.216;21.142;2022-11-14T22:08:50;50.08;;;29.75;;
50443;SDS011;36370;52.216;21.142;2022-11-14T22:13:12;47.13;;;29.35;;
50443;SDS011;36370;52.216;21.142;2022-11-14T22:17:32;43.63;;;27.75;;
50443;SDS011;36370;52.216;21.142;2022-11-14T22:21:52;47.15;;;27.40;;
50443;SDS011;36370;52.216;21.142;2022-11-14T22:26:13;55.05;;;31.17;;
50443;SDS011;36370;52.216;21.142;2022-11-14T22:30:33;47.33;;;30.20;;
50443;SDS011;36370;52.216;21.142;2022-11-14T22:34:54;48.90;;;30.95;;
50443;SDS011;36370;52.216;21.142;2022-11-14T22:39:15;50.55;;;31.67;;
50443;SDS011;36370;52.216;21.142;2022-11-14T22:43:35;49.08;;;29.30;;
50443;SDS011;36370;52.216;21.142;2022-11-14T22:47:56;49.88;;;29.75;;
50443;SDS011;36370;52.216;21.142;2022-11-14T22:52:17;46.67;;;30.38;;
50443;SDS011;36370;52.216;21.142;2022-11-14T22:56:38;49.13;;;31.23;;
50443;SDS011;36370;52.216;21.142;2022-11-14T23:00:58;47.33;;;29.63;;
50443;SDS011;36370;52.216;21.142;2022-11-14T23:05:19;46.60;;;28.63;;
50443;SDS011;36370;52.216;21.142;2022-11-14T23:09:39;45.35;;;28.95;;
50443;SDS011;36370;52.216;21.142;2022-11-14T23:13:59;46.05;;;28.67;;
50443;SDS011;36370;52.216;21.142;2022-11-14T23:18:21;47.03;;;29.63;;
50443;SDS011;36370;52.216;21.142;2022-11-14T23:22:42;50.70;;;30.67;;
50443;SDS011;36370;52.216;21.142;2022-11-14T23:27:03;50.60;;;29.88;;
50443;SDS011;36370;52.216;21.142;2022-11-14T23:31:24;50.58;;;31.27;;
50443;SDS011;36370;52.216;21.142;2022-11-14T23:35:44;49.55;;;31.00;;
50443;SDS011;36370;52.216;21.142;2022-11-14T23:40:05;46.03;;;29.27;;
50443;SDS011;36370;52.216;21.142;2022-11-14T23:44:26;51.13;;;32.05;;
50443;SDS011;36370;52.216;21.142;2022-11-14T23:48:46;48.35;;;30.80;;
50443;SDS011;36370;52.216;21.142;2022-11-14T23:53:06;51.95;;;30.33;;
50443;SDS011;36370;52.216;21.142;2022-11-14T23:57:27;50.17;;;31.15;;
